createdAt,value
2018-04-25T00:01:11.595Z,50.50
2018-04-25T00:03:45.977Z,50.40
2018-04-25T00:06:20.348Z,50.30
2018-04-25T00:08:54.983Z,50.00
2018-04-25T00:11:29.488Z,50.80
2018-04-25T00:14:04.640Z,50.00
2018-04-25T00:16:39.121Z,50.00
2018-04-25T00:19:13.577Z,50.00
2018-04-25T00:21:47.976Z,50.10
2018-04-25T00:24:22.371Z,50.20
2018-04-25T00:26:56.736Z,50.00
2018-04-25T00:29:31.164Z,50.90
2018-04-25T00:32:05.766Z,51.30
2018-04-25T00:34:40.796Z,50.70
2018-04-25T00:37:15.244Z,50.60
2018-04-25T00:39:49.771Z,50.30
2018-04-25T00:42:24.393Z,49.80
2018-04-25T00:44:59.605Z,49.30
2018-04-25T00:47:33.884Z,49.30
2018-04-25T00:50:08.372Z,49.70
2018-04-25T00:52:42.775Z,49.70
2018-04-25T00:55:17.108Z,49.60
2018-04-25T00:57:51.575Z,49.40
2018-04-25T01:00:26.051Z,49.60
2018-04-25T01:03:00.520Z,49.60
2018-04-25T01:05:34.964Z,49.70
2018-04-25T01:08:09.524Z,49.90
2018-04-25T01:10:43.956Z,50.50
2018-04-25T01:13:18.196Z,50.50
2018-04-25T01:15:52.680Z,50.40
2018-04-25T01:18:27.154Z,49.90
2018-04-25T01:21:01.529Z,49.50
2018-04-25T01:23:35.946Z,49.30
2018-04-25T01:26:12.112Z,49.30
2018-04-25T01:28:50.068Z,49.60
2018-04-25T01:34:45.565Z,49.40
2018-04-25T01:37:22.829Z,49.20
2018-04-25T01:39:59.922Z,49.40
2018-04-25T01:46:04.156Z,49.10
2018-04-25T01:51:47.752Z,48.90
2018-04-25T01:54:40.352Z,49.10
2018-04-25T01:57:32.908Z,49.00
2018-04-25T02:00:25.353Z,48.80
2018-04-25T02:03:05.373Z,48.90
2018-04-25T02:05:39.617Z,48.90
2018-04-25T02:08:13.915Z,48.70
2018-04-25T02:10:48.357Z,48.70
2018-04-25T02:13:22.980Z,48.80
2018-04-25T02:15:57.501Z,48.90
2018-04-25T02:18:36.020Z,48.80
2018-04-25T02:21:10.341Z,48.70
2018-04-25T02:23:45.357Z,48.60
2018-04-25T02:26:19.692Z,48.60
2018-04-25T02:28:54.083Z,48.60
2018-04-25T02:31:28.498Z,48.60
2018-04-25T02:34:03.156Z,48.60
2018-04-25T02:36:37.777Z,48.60
2018-04-25T02:39:12.302Z,48.60
2018-04-25T02:41:46.824Z,48.60
2018-04-25T02:44:21.221Z,48.60
2018-04-25T02:46:55.785Z,48.80
2018-04-25T02:49:30.180Z,49.50
2018-04-25T02:52:05.214Z,48.80
2018-04-25T02:54:39.549Z,48.70
2018-04-25T02:57:14.568Z,49.10
2018-04-25T02:59:48.988Z,49.10
2018-04-25T03:02:23.333Z,51.40
2018-04-25T03:04:58.408Z,53.80
2018-04-25T03:07:32.763Z,53.80
2018-04-25T03:10:08.125Z,51.40
2018-04-25T03:12:43.256Z,51.00
2018-04-25T03:15:17.676Z,51.00
2018-04-25T03:17:52.813Z,50.00
2018-04-25T03:20:27.137Z,50.00
2018-04-25T03:23:01.428Z,49.80
2018-04-25T03:25:36.076Z,49.80
2018-04-25T03:28:10.478Z,49.80
2018-04-25T03:30:44.893Z,49.60
2018-04-25T03:33:19.445Z,49.40
2018-04-25T03:35:53.820Z,49.30
2018-04-25T03:38:28.384Z,49.30
2018-04-25T03:41:03.090Z,49.20
2018-04-25T03:43:37.328Z,49.10
2018-04-25T03:46:11.748Z,49.10
2018-04-25T03:48:46.276Z,49.30
2018-04-25T03:51:20.795Z,49.30
2018-04-25T03:53:55.222Z,49.40
2018-04-25T03:56:29.625Z,49.40
2018-04-25T03:59:04.250Z,49.50
2018-04-25T04:01:38.580Z,49.30
2018-04-25T04:04:13.597Z,49.40
2018-04-25T04:06:48.012Z,49.30
2018-04-25T04:09:22.328Z,49.70
2018-04-25T04:11:57.668Z,49.40
2018-04-25T04:14:32.808Z,49.70
2018-04-25T04:17:07.357Z,49.60
2018-04-25T04:19:42.584Z,49.80
2018-04-25T04:22:17.604Z,49.90
2018-04-25T04:24:52.190Z,49.90
2018-04-25T04:27:26.677Z,50.00
2018-04-25T04:30:01.104Z,49.90
2018-04-25T04:32:36.327Z,49.60
2018-04-25T04:35:11.652Z,49.90
2018-04-25T04:37:46.064Z,49.90
2018-04-25T04:40:21.348Z,50.50
2018-04-25T04:42:55.968Z,50.50
2018-04-25T04:45:30.293Z,50.40
2018-04-25T04:48:04.604Z,50.20
2018-04-25T04:50:39.029Z,50.10
2018-04-25T04:53:13.556Z,49.50
2018-04-25T04:55:47.993Z,50.00
2018-04-25T04:58:22.492Z,50.10
2018-04-25T05:00:56.864Z,50.00
2018-04-25T05:03:31.938Z,49.90
2018-04-25T05:06:06.377Z,49.90
2018-04-25T05:08:40.846Z,49.90
2018-04-25T05:11:15.116Z,50.20
2018-04-25T05:13:49.544Z,50.00
2018-04-25T05:16:24.620Z,49.80
2018-04-25T05:18:59.028Z,49.80
2018-04-25T05:21:33.412Z,50.10
2018-04-25T05:24:07.824Z,50.00
2018-04-25T05:26:42.260Z,50.10
2018-04-25T05:29:16.776Z,50.00
2018-04-25T05:31:51.261Z,49.60
2018-04-25T05:34:25.600Z,49.90
2018-04-25T05:37:00.112Z,50.00
2018-04-25T05:39:34.532Z,50.00
2018-04-25T05:42:10.413Z,49.90
2018-04-25T05:44:45.032Z,49.90
2018-04-25T05:47:19.442Z,49.70
2018-04-25T05:49:53.858Z,49.60
2018-04-25T05:52:28.145Z,49.60
2018-04-25T05:55:02.523Z,49.50
2018-04-25T05:57:37.641Z,49.60
2018-04-25T06:00:11.941Z,49.50
2018-04-25T06:02:46.993Z,57.40
2018-04-25T06:05:21.540Z,57.40
2018-04-25T06:07:55.859Z,60.30
2018-04-25T06:10:30.256Z,66.40
2018-04-25T06:13:05.504Z,65.30
2018-04-25T06:15:39.904Z,65.40
2018-04-25T06:18:14.448Z,68.00
2018-04-25T06:20:48.718Z,65.00
2018-04-25T06:23:23.288Z,65.20
2018-04-25T06:25:57.733Z,65.50
2018-04-25T06:28:32.436Z,64.20
2018-04-25T06:31:07.075Z,66.30
2018-04-25T06:33:41.588Z,69.10
2018-04-25T06:36:15.868Z,70.90
2018-04-25T06:38:50.362Z,71.60
2018-04-25T06:41:24.864Z,69.70
2018-04-25T06:43:59.238Z,69.30
2018-04-25T06:46:33.596Z,67.50
2018-04-25T06:49:07.992Z,67.10
2018-04-25T06:51:42.335Z,66.70
2018-04-25T06:54:16.733Z,67.90
2018-04-25T06:56:51.085Z,67.40
2018-04-25T06:59:25.367Z,67.20
2018-04-25T07:01:59.656Z,65.80
2018-04-25T07:04:34.132Z,64.80
2018-04-25T07:07:08.396Z,64.10
2018-04-25T07:09:42.738Z,64.40
2018-04-25T07:12:18.018Z,61.90
2018-04-25T07:14:52.465Z,61.90
2018-04-25T07:17:27.689Z,62.90
2018-04-25T07:20:02.914Z,61.70
2018-04-25T07:22:37.196Z,61.70
2018-04-25T07:25:11.595Z,63.20
2018-04-25T07:27:46.185Z,62.10
2018-04-25T07:30:20.466Z,61.40
2018-04-25T07:32:55.012Z,62.40
2018-04-25T07:35:29.587Z,61.90
2018-04-25T07:38:03.804Z,61.40
2018-04-25T07:40:38.376Z,64.80
2018-04-25T07:43:13.509Z,64.90
2018-04-25T07:45:47.816Z,64.90
2018-04-25T07:48:22.241Z,66.70
2018-04-25T07:50:56.876Z,66.40
2018-04-25T07:53:32.012Z,66.90
2018-04-25T07:56:06.336Z,66.80
2018-04-25T07:58:40.813Z,65.30
2018-04-25T08:01:15.181Z,64.90
2018-04-25T08:03:50.312Z,65.30
2018-04-25T08:06:24.750Z,65.30
2018-04-25T08:08:59.364Z,63.30
2018-04-25T08:11:33.888Z,61.70
2018-04-25T08:14:20.120Z,62.20
2018-04-25T08:17:06.384Z,61.40
2018-04-25T08:19:52.675Z,60.70
2018-04-25T08:22:27.000Z,60.90
2018-04-25T08:25:01.536Z,58.90
2018-04-25T08:27:36.016Z,58.40
2018-04-25T08:30:10.573Z,57.50
2018-04-25T08:32:44.890Z,56.20
2018-04-25T08:35:19.196Z,55.40
2018-04-25T08:37:53.605Z,55.10
2018-04-25T08:40:27.917Z,54.80
2018-04-25T08:43:03.112Z,56.00
2018-04-25T08:45:37.404Z,55.90
2018-04-25T08:48:11.729Z,56.20
2018-04-25T08:50:47.053Z,52.80
2018-04-25T08:53:22.070Z,51.20
2018-04-25T08:55:56.623Z,51.10
2018-04-25T08:58:31.144Z,50.90
2018-04-25T09:01:05.440Z,50.00
2018-04-25T09:03:39.752Z,48.20
2018-04-25T09:06:14.180Z,47.50
2018-04-25T09:08:49.206Z,47.30
2018-04-25T09:11:23.839Z,47.70
2018-04-25T09:13:58.054Z,48.50
2018-04-25T09:16:33.334Z,47.20
2018-04-25T09:19:07.616Z,47.10
2018-04-25T09:21:42.651Z,47.30
2018-04-25T09:24:16.948Z,47.30
2018-04-25T09:26:51.409Z,48.80
2018-04-25T09:29:25.812Z,47.60
2018-04-25T09:32:00.536Z,44.80
2018-04-25T09:34:34.960Z,47.40
2018-04-25T09:37:09.289Z,45.30
2018-04-25T09:39:43.819Z,46.00
2018-04-25T09:42:19.981Z,47.70
2018-04-25T09:44:54.269Z,47.60
2018-04-25T09:47:28.609Z,46.50
2018-04-25T09:50:03.032Z,45.00
2018-04-25T09:52:37.449Z,46.90
2018-04-25T09:55:11.733Z,45.30
2018-04-25T09:57:46.140Z,46.50
2018-04-25T10:00:20.479Z,46.80
2018-04-25T10:02:55.649Z,46.50
2018-04-25T10:05:30.031Z,46.20
2018-04-25T10:08:04.488Z,47.80
2018-04-25T10:10:38.824Z,44.50
2018-04-25T10:13:13.332Z,48.00
2018-04-25T10:15:47.648Z,47.10
2018-04-25T10:18:22.788Z,42.20
2018-04-25T10:20:57.296Z,42.10
2018-04-25T10:23:32.453Z,48.80
2018-04-25T10:26:06.878Z,48.80
2018-04-25T10:28:41.880Z,47.20
2018-04-25T10:31:17.119Z,47.10
2018-04-25T10:33:51.754Z,47.00
2018-04-25T10:36:26.082Z,48.30
2018-04-25T10:39:00.558Z,47.00
2018-04-25T10:41:34.733Z,47.60
2018-04-25T10:44:09.420Z,46.80
2018-04-25T10:46:44.688Z,46.60
2018-04-25T10:49:19.212Z,46.70
2018-04-25T10:51:53.653Z,47.60
2018-04-25T10:54:28.264Z,49.80
2018-04-25T10:57:02.563Z,49.20
2018-04-25T10:59:37.077Z,51.30
2018-04-25T11:02:11.733Z,48.90
2018-04-25T11:04:46.088Z,53.40
2018-04-25T11:07:20.378Z,49.30
2018-04-25T11:09:54.693Z,48.60
2018-04-25T11:12:29.912Z,51.40
2018-04-25T11:15:04.548Z,51.40
2018-04-25T11:17:38.953Z,48.60
2018-04-25T11:20:13.240Z,49.90
2018-04-25T11:22:47.497Z,47.90
2018-04-25T11:25:22.626Z,48.40
2018-04-25T11:27:57.045Z,48.30
2018-04-25T11:30:31.452Z,45.90
2018-04-25T11:33:05.824Z,47.50
2018-04-25T11:35:40.460Z,49.70
2018-04-25T11:38:14.830Z,49.60
2018-04-25T11:40:50.103Z,52.50
2018-04-25T11:43:24.608Z,52.60
2018-04-25T11:45:58.900Z,52.80
2018-04-25T11:48:33.220Z,52.80
2018-04-25T11:51:07.768Z,51.90
2018-04-25T11:53:42.796Z,52.10
2018-04-25T11:56:17.132Z,52.10
2018-04-25T11:58:51.562Z,51.60
2018-04-25T12:01:25.963Z,53.60
2018-04-25T12:04:00.297Z,53.20
2018-04-25T12:06:34.904Z,52.80
2018-04-25T12:09:10.238Z,53.30
2018-04-25T12:11:45.265Z,51.00
2018-04-25T12:14:19.716Z,50.90
2018-04-25T12:16:54.128Z,51.90
2018-04-25T12:19:28.640Z,50.40
2018-04-25T12:22:02.961Z,50.60
2018-04-25T12:24:37.248Z,51.10
2018-04-25T12:27:11.520Z,53.00
2018-04-25T12:29:45.828Z,51.40
2018-04-25T12:32:20.225Z,53.00
2018-04-25T12:34:55.276Z,53.10
2018-04-25T12:37:29.805Z,53.10
2018-04-25T12:40:04.094Z,51.00
2018-04-25T12:42:38.540Z,50.80
2018-04-25T12:45:13.653Z,50.80
2018-04-25T12:47:48.112Z,50.60
2018-04-25T12:50:22.616Z,49.90
2018-04-25T12:52:57.044Z,50.80
2018-04-25T12:55:31.368Z,48.50
2018-04-25T12:58:05.796Z,50.20
2018-04-25T13:00:40.205Z,49.30
2018-04-25T13:03:14.448Z,51.40
2018-04-25T13:05:48.944Z,50.60
2018-04-25T13:08:23.673Z,50.30
2018-04-25T13:10:58.912Z,50.00
2018-04-25T13:13:34.136Z,49.50
2018-04-25T13:16:08.652Z,49.60
2018-04-25T13:18:43.191Z,50.30
2018-04-25T13:21:18.494Z,50.50
2018-04-25T13:23:52.951Z,50.80
2018-04-25T13:26:27.369Z,49.30
2018-04-25T13:29:01.613Z,49.90
2018-04-25T13:31:35.985Z,51.50
2018-04-25T13:34:10.244Z,49.10
2018-04-25T13:36:44.556Z,51.10
2018-04-25T13:39:19.589Z,48.70
2018-04-25T13:41:54.211Z,48.60
2018-04-25T13:44:29.348Z,49.70
2018-04-25T13:47:03.640Z,49.60
2018-04-25T13:49:38.093Z,46.90
2018-04-25T13:52:12.528Z,46.30
2018-04-25T13:54:48.336Z,47.60
2018-04-25T13:57:22.780Z,47.60
2018-04-25T13:59:57.088Z,47.90
2018-04-25T14:02:31.405Z,47.50
2018-04-25T14:05:05.944Z,47.10
2018-04-25T14:07:40.289Z,47.00
2018-04-25T14:10:14.700Z,47.30
2018-04-25T14:12:49.042Z,48.30
2018-04-25T14:15:23.635Z,47.30
2018-04-25T14:17:58.845Z,47.50
2018-04-25T14:20:33.132Z,47.50
2018-04-25T14:23:07.384Z,47.20
2018-04-25T14:25:41.923Z,46.60
2018-04-25T14:28:16.552Z,46.40
2018-04-25T14:30:51.072Z,46.90
2018-04-25T14:33:25.578Z,47.00
2018-04-25T14:36:00.012Z,47.20
2018-04-25T14:38:34.436Z,46.60
2018-04-25T14:41:08.956Z,46.40
2018-04-25T14:43:43.384Z,46.80
2018-04-25T14:46:18.497Z,47.20
2018-04-25T14:48:53.040Z,47.10
2018-04-25T14:51:27.991Z,47.40
2018-04-25T14:54:02.448Z,46.60
2018-04-25T14:56:36.816Z,46.40
2018-04-25T14:59:11.215Z,47.10
2018-04-25T15:01:45.571Z,48.40
2018-04-25T15:04:20.065Z,48.00
2018-04-25T15:06:54.487Z,47.10
2018-04-25T15:09:28.924Z,46.70
2018-04-25T15:12:03.349Z,46.90
2018-04-25T15:14:38.156Z,46.90
2018-04-25T15:17:12.584Z,48.40
2018-04-25T15:19:47.132Z,47.90
2018-04-25T15:22:21.408Z,48.70
2018-04-25T15:24:55.733Z,49.00
2018-04-25T15:27:30.064Z,48.10
2018-04-25T15:30:04.483Z,46.30
2018-04-25T15:32:38.764Z,47.20
2018-04-25T15:35:13.129Z,46.80
2018-04-25T15:37:48.429Z,46.10
2018-04-25T15:40:22.765Z,46.00
2018-04-25T15:42:57.060Z,45.60
2018-04-25T15:45:32.100Z,47.20
2018-04-25T15:48:06.568Z,47.10
2018-04-25T15:50:40.964Z,46.50
2018-04-25T15:53:15.279Z,47.50
2018-04-25T15:55:49.842Z,47.30
2018-04-25T15:58:24.127Z,47.50
2018-04-25T16:00:58.667Z,47.70
2018-04-25T16:03:32.968Z,47.30
2018-04-25T16:06:07.612Z,46.70
2018-04-25T16:08:41.872Z,47.60
2018-04-25T16:11:16.460Z,46.40
2018-04-25T16:13:51.080Z,45.90
2018-04-25T16:16:26.170Z,46.00
2018-04-25T16:19:00.825Z,46.00
2018-04-25T16:21:35.029Z,45.20
2018-04-25T16:24:09.483Z,44.90
2018-04-25T16:26:43.997Z,45.00
2018-04-25T16:29:18.418Z,44.90
2018-04-25T16:31:53.556Z,44.00
2018-04-25T16:34:27.860Z,44.00
2018-04-25T16:37:02.272Z,44.80
2018-04-25T16:39:36.712Z,43.20
2018-04-25T16:42:11.248Z,44.40
2018-04-25T16:44:45.541Z,45.20
2018-04-25T16:47:19.980Z,45.70
2018-04-25T16:49:54.364Z,44.10
2018-04-25T16:52:28.829Z,45.50
2018-04-25T16:55:03.092Z,44.60
2018-04-25T16:57:37.452Z,44.60
2018-04-25T17:00:11.832Z,44.30
2018-04-25T17:02:46.177Z,45.00
2018-04-25T17:05:20.604Z,44.90
2018-04-25T17:07:55.054Z,44.20
2018-04-25T17:10:29.468Z,44.80
2018-04-25T17:13:03.866Z,44.80
2018-04-25T17:15:38.216Z,46.20
2018-04-25T17:18:12.517Z,45.50
2018-04-25T17:20:46.805Z,46.00
2018-04-25T17:23:21.145Z,47.00
2018-04-25T17:25:55.787Z,46.50
2018-04-25T17:28:30.081Z,46.00
2018-04-25T17:31:04.734Z,46.20
2018-04-25T17:33:39.259Z,46.20
2018-04-25T17:36:13.873Z,46.50
2018-04-25T17:38:49.809Z,47.30
2018-04-25T17:41:24.348Z,47.20
2018-04-25T17:43:59.484Z,48.50
2018-04-25T17:46:33.929Z,48.10
2018-04-25T17:49:08.299Z,48.10
2018-04-25T17:51:42.858Z,47.90
2018-04-25T17:54:18.002Z,47.80
2018-04-25T17:56:52.445Z,47.40
2018-04-25T17:59:26.786Z,47.40
2018-04-25T18:02:01.276Z,47.30
2018-04-25T18:04:35.689Z,47.10
2018-04-25T18:07:10.034Z,48.10
2018-04-25T18:09:44.332Z,49.00
2018-04-25T18:12:18.653Z,49.00
2018-04-25T18:14:53.128Z,50.10
2018-04-25T18:17:28.294Z,50.60
2018-04-25T18:20:03.547Z,50.20
2018-04-25T18:22:37.869Z,50.20
2018-04-25T18:25:12.981Z,51.30
2018-04-25T18:27:47.280Z,51.30
2018-04-25T18:30:21.611Z,51.60
2018-04-25T18:32:56.118Z,51.70
2018-04-25T18:35:32.048Z,51.70
2018-04-25T18:38:06.417Z,51.60
2018-04-25T18:40:40.681Z,51.60
2018-04-25T18:43:14.983Z,52.60
2018-04-25T18:45:49.409Z,53.00
2018-04-25T18:48:23.770Z,53.20
2018-04-25T18:50:58.077Z,53.40
2018-04-25T18:53:32.496Z,53.30
2018-04-25T18:56:07.013Z,53.50
2018-04-25T18:58:42.150Z,53.80
2018-04-25T19:01:16.482Z,53.20
2018-04-25T19:03:50.796Z,54.40
2018-04-25T19:06:25.226Z,52.40
2018-04-25T19:08:59.669Z,49.90
2018-04-25T19:11:34.050Z,48.20
2018-04-25T19:14:08.473Z,47.00
2018-04-25T19:16:43.118Z,46.10
2018-04-25T19:19:18.569Z,45.40
2018-04-25T19:21:53.031Z,44.90
2018-04-25T19:24:27.387Z,44.40
2018-04-25T19:27:01.717Z,44.10
2018-04-25T19:29:36.249Z,43.80
2018-04-25T19:34:51.419Z,43.40
2018-04-25T19:37:25.681Z,43.20
2018-04-25T19:40:01.494Z,42.90
2018-04-25T19:42:35.773Z,42.80
2018-04-25T19:45:10.108Z,42.70
2018-04-25T19:47:44.553Z,42.70
2018-04-25T19:50:18.916Z,42.60
2018-04-25T19:52:53.560Z,42.50
2018-04-25T19:55:28.048Z,42.50
2018-04-25T19:58:02.553Z,42.40
2018-04-25T20:00:36.956Z,42.30
2018-04-25T20:03:11.430Z,42.30
2018-04-25T20:05:46.498Z,42.30
2018-04-25T20:08:20.918Z,42.20
2018-04-25T20:10:55.211Z,42.20
2018-04-25T20:13:29.569Z,42.20
2018-04-25T20:16:03.937Z,42.20
2018-04-25T20:18:38.234Z,42.10
2018-04-25T20:21:12.744Z,42.10
2018-04-25T20:23:47.132Z,42.10
2018-04-25T20:26:21.795Z,42.20
2018-04-25T20:28:56.262Z,42.10
2018-04-25T20:31:31.322Z,42.00
2018-04-25T20:34:05.774Z,42.00
2018-04-25T20:36:40.064Z,42.10
2018-04-25T20:39:15.324Z,42.60
2018-04-25T20:41:49.718Z,41.90
2018-04-25T20:44:25.076Z,41.90
2018-04-25T20:46:59.610Z,42.00
2018-04-25T20:49:34.502Z,42.00
2018-04-25T20:52:08.920Z,42.00
2018-04-25T20:54:43.491Z,42.00
2018-04-25T20:57:17.875Z,42.00
2018-04-25T20:59:52.223Z,42.00
2018-04-25T21:02:26.829Z,42.00
2018-04-25T21:05:01.267Z,42.00
2018-04-25T21:07:35.848Z,42.00
2018-04-25T21:10:10.301Z,41.50
2018-04-25T21:12:44.841Z,42.10
2018-04-25T21:15:19.109Z,42.00
2018-04-25T21:17:53.487Z,42.10
2018-04-25T21:20:28.513Z,42.40
2018-04-25T21:23:03.006Z,42.40
2018-04-25T21:25:37.478Z,42.30
2018-04-25T21:28:11.798Z,42.90
2018-04-25T21:30:46.173Z,42.30
2018-04-25T21:33:20.530Z,42.30
2018-04-25T21:35:55.243Z,42.30
2018-04-25T21:38:29.655Z,42.40
2018-04-25T21:41:04.043Z,42.40
2018-04-25T21:43:38.657Z,42.30
2018-04-25T21:46:13.245Z,42.30
2018-04-25T21:48:47.771Z,42.20
2018-04-25T21:51:22.286Z,42.20
2018-04-25T21:53:56.846Z,42.20
2018-04-25T21:56:31.312Z,42.20
2018-04-25T21:59:05.646Z,42.20
2018-04-25T22:01:40.127Z,42.20
2018-04-25T22:04:14.576Z,42.20
2018-04-25T22:06:49.005Z,42.10
2018-04-25T22:09:23.405Z,42.10
2018-04-25T22:11:57.834Z,42.10
2018-04-25T22:14:32.253Z,42.10
2018-04-25T22:17:06.565Z,42.10
2018-04-25T22:19:40.862Z,42.10
2018-04-25T22:22:15.331Z,42.10
2018-04-25T22:24:49.848Z,42.10
2018-04-25T22:27:24.252Z,42.10
2018-04-25T22:29:58.577Z,42.10
2018-04-25T22:32:32.916Z,42.10
2018-04-25T22:35:07.533Z,42.10
2018-04-25T22:37:41.833Z,42.20
2018-04-25T22:40:16.317Z,42.20
2018-04-25T22:42:50.809Z,42.20
2018-04-25T22:45:25.312Z,42.20
2018-04-25T22:47:59.761Z,42.20
2018-04-25T22:50:34.165Z,42.20
2018-04-25T22:53:08.683Z,42.20
2018-04-25T22:55:43.058Z,42.20
2018-04-25T22:58:17.433Z,42.20
2018-04-25T23:00:51.717Z,42.40
2018-04-25T23:03:26.096Z,42.40
2018-04-25T23:06:00.473Z,42.40
2018-04-25T23:08:35.032Z,42.50
2018-04-25T23:11:09.525Z,42.50
2018-04-25T23:13:43.979Z,42.40
2018-04-25T23:16:18.341Z,42.40
2018-04-25T23:18:52.908Z,42.50
2018-04-25T23:21:27.443Z,42.50
2018-04-25T23:24:02.040Z,42.50
2018-04-25T23:26:36.318Z,42.50
2018-04-25T23:29:10.728Z,42.80
2018-04-25T23:31:45.066Z,42.80
2018-04-25T23:34:19.404Z,42.70
2018-04-25T23:36:53.680Z,42.70
2018-04-25T23:39:28.025Z,42.70
2018-04-25T23:42:02.885Z,42.60
2018-04-25T23:44:37.353Z,42.70
2018-04-25T23:47:11.617Z,42.70
2018-04-25T23:49:45.949Z,42.80
2018-04-25T23:52:20.557Z,42.70
2018-04-25T23:54:55.089Z,42.70
2018-04-25T23:57:29.364Z,42.70
